createdAt,value
2018-08-04T00:00:50.291Z,4.57
2018-08-04T00:03:18.626Z,4.03
2018-08-04T00:05:46.985Z,4.47
2018-08-04T00:08:15.433Z,4.27
2018-08-04T00:10:43.767Z,4.17
2018-08-04T00:13:12.139Z,4.33
2018-08-04T00:15:40.523Z,3.90
2018-08-04T00:18:09.054Z,4.00
2018-08-04T00:20:37.426Z,3.83
2018-08-04T00:23:06.497Z,3.60
2018-08-04T00:25:34.873Z,3.97
2018-08-04T00:28:03.226Z,5.10
2018-08-04T00:30:31.591Z,4.57
2018-08-04T00:33:01.227Z,4.73
2018-08-04T00:35:30.252Z,4.20
2018-08-04T00:37:59.383Z,4.70
2018-08-04T00:40:28.410Z,4.90
2018-08-04T00:42:56.775Z,4.50
2018-08-04T00:45:25.158Z,4.70
2018-08-04T00:47:54.398Z,4.47
2018-08-04T00:50:22.772Z,4.83
2018-08-04T00:52:51.125Z,5.50
2018-08-04T00:55:19.495Z,5.10
2018-08-04T00:57:47.848Z,5.70
2018-08-04T01:00:16.197Z,5.03
2018-08-04T01:02:44.547Z,5.33
2018-08-04T01:05:12.904Z,4.87
2018-08-04T01:07:41.281Z,5.10
2018-08-04T01:10:09.629Z,4.17
2018-08-04T01:12:37.979Z,4.33
2018-08-04T01:15:07.333Z,4.47
2018-08-04T01:17:36.842Z,4.50
2018-08-04T01:20:06.989Z,4.37
2018-08-04T01:22:37.469Z,4.80
2018-08-04T01:25:07.777Z,3.53
2018-08-04T01:27:37.464Z,4.77
2018-08-04T01:30:07.443Z,4.50
2018-08-04T01:32:36.998Z,4.87
2018-08-04T01:35:05.859Z,4.20
2018-08-04T01:37:35.359Z,4.60
2018-08-04T01:40:05.533Z,4.47
2018-08-04T01:42:33.880Z,4.77
2018-08-04T01:45:02.238Z,4.50
2018-08-04T01:47:31.624Z,5.07
2018-08-04T01:50:00.956Z,4.60
2018-08-04T01:52:30.373Z,4.80
2018-08-04T01:55:00.950Z,5.50
2018-08-04T01:57:30.154Z,4.87
2018-08-04T01:59:59.586Z,4.60
2018-08-04T02:02:27.972Z,4.90
2018-08-04T02:04:57.334Z,4.70
2018-08-04T02:07:26.580Z,4.43
2018-08-04T02:09:55.787Z,4.57
2018-08-04T02:12:24.736Z,5.20
2018-08-04T02:14:53.112Z,4.53
2018-08-04T02:17:21.450Z,4.30
2018-08-04T02:19:49.797Z,4.33
2018-08-04T02:22:18.233Z,4.57
2018-08-04T02:24:47.174Z,4.63
2018-08-04T02:27:16.381Z,4.57
2018-08-04T02:29:45.724Z,5.20
2018-08-04T02:32:14.057Z,4.97
2018-08-04T02:34:42.409Z,4.77
2018-08-04T02:37:10.766Z,5.23
2018-08-04T02:39:39.124Z,5.67
2018-08-04T02:42:07.457Z,5.10
2018-08-04T02:44:36.673Z,5.47
2018-08-04T02:47:06.393Z,4.60
2018-08-04T02:49:37.189Z,4.57
2018-08-04T02:52:06.632Z,4.50
2018-08-04T02:54:36.816Z,4.93
2018-08-04T02:57:06.382Z,4.87
2018-08-04T02:59:37.131Z,4.90
2018-08-04T03:02:06.838Z,4.43
2018-08-04T03:04:36.075Z,5.13
2018-08-04T03:07:06.463Z,4.70
2018-08-04T03:09:35.526Z,4.67
2018-08-04T03:12:04.761Z,4.50
2018-08-04T03:14:33.084Z,5.27
2018-08-04T03:17:02.346Z,4.40
2018-08-04T03:19:31.642Z,4.50
2018-08-04T03:22:02.458Z,4.80
2018-08-04T03:24:30.841Z,3.93
2018-08-04T03:26:59.601Z,5.10
2018-08-04T03:29:28.612Z,4.87
2018-08-04T03:31:58.046Z,4.47
2018-08-04T03:34:27.238Z,4.60
2018-08-04T03:36:56.606Z,4.60
2018-08-04T03:39:25.878Z,4.67
2018-08-04T03:41:55.216Z,4.60
2018-08-04T03:44:23.565Z,5.00
2018-08-04T03:49:26.006Z,4.97
2018-08-04T03:51:55.255Z,5.77
2018-08-04T03:54:24.509Z,5.60
2018-08-04T03:56:53.733Z,4.93
2018-08-04T03:59:23.077Z,5.60
2018-08-04T04:01:52.416Z,5.67
2018-08-04T04:04:21.625Z,5.37
2018-08-04T04:06:50.965Z,5.23
2018-08-04T04:09:20.178Z,5.07
2018-08-04T04:11:48.522Z,6.00
2018-08-04T04:14:17.918Z,5.17
2018-08-04T04:16:47.202Z,5.50
2018-08-04T04:19:16.409Z,5.57
2018-08-04T04:21:45.732Z,5.13
2018-08-04T04:24:14.073Z,5.90
2018-08-04T04:26:43.394Z,5.53
2018-08-04T04:29:12.750Z,5.40
2018-08-04T04:31:41.085Z,5.50
2018-08-04T04:34:10.320Z,6.37
2018-08-04T04:36:39.520Z,5.53
2018-08-04T04:39:09.364Z,6.17
2018-08-04T04:41:39.065Z,5.60
2018-08-04T04:44:08.830Z,6.07
2018-08-04T04:46:38.183Z,5.87
2018-08-04T04:49:09.451Z,5.90
2018-08-04T04:51:39.124Z,5.30
2018-08-04T04:54:08.498Z,5.20
2018-08-04T04:56:37.716Z,5.30
2018-08-04T04:59:07.243Z,3.97
2018-08-04T05:01:37.702Z,5.50
2018-08-04T05:04:07.085Z,5.83
2018-08-04T05:06:37.703Z,5.10
2018-08-04T05:09:08.407Z,5.10
2018-08-04T05:11:37.786Z,5.00
2018-08-04T05:14:06.256Z,5.07
2018-08-04T05:16:35.945Z,5.20
2018-08-04T05:19:05.075Z,4.90
2018-08-04T05:21:33.473Z,5.60
2018-08-04T05:24:02.843Z,4.80
2018-08-04T05:26:32.845Z,5.13
2018-08-04T05:29:01.887Z,4.63
2018-08-04T05:31:32.599Z,5.30
2018-08-04T05:34:01.993Z,5.40
2018-08-04T05:36:31.248Z,4.50
2018-08-04T05:39:00.730Z,5.50
2018-08-04T05:41:31.063Z,5.30
2018-08-04T05:44:01.847Z,5.50
2018-08-04T05:46:31.231Z,4.50
2018-08-04T05:49:00.482Z,5.10
2018-08-04T05:51:30.158Z,5.33
2018-08-04T05:53:59.661Z,5.00
2018-08-04T05:56:29.840Z,5.43
2018-08-04T05:58:58.728Z,4.60
2018-08-04T06:01:28.668Z,4.77
2018-08-04T06:03:57.019Z,4.60
2018-08-04T06:06:26.306Z,4.80
2018-08-04T06:08:54.656Z,5.63
2018-08-04T06:11:24.062Z,5.87
2018-08-04T06:13:52.569Z,5.37
2018-08-04T06:16:22.282Z,5.70
2018-08-04T06:18:50.758Z,5.13
2018-08-04T06:21:20.139Z,4.90
2018-08-04T06:23:48.493Z,5.30
2018-08-04T06:26:17.662Z,5.30
2018-08-04T06:28:46.935Z,5.20
2018-08-04T06:31:16.345Z,5.60
2018-08-04T06:33:45.718Z,4.77
2018-08-04T06:36:15.084Z,5.33
2018-08-04T06:38:43.434Z,4.90
2018-08-04T06:41:12.742Z,5.37
2018-08-04T06:43:41.912Z,4.33
2018-08-04T06:46:10.499Z,4.17
2018-08-04T06:48:39.835Z,4.10
2018-08-04T06:51:08.234Z,4.37
2018-08-04T06:53:37.231Z,4.00
2018-08-04T06:56:06.569Z,4.13
2018-08-04T06:58:36.801Z,4.70
2018-08-04T07:01:07.194Z,3.70
2018-08-04T07:03:37.373Z,4.60
2018-08-04T07:06:08.158Z,3.90
2018-08-04T07:08:37.396Z,4.30
2018-08-04T07:11:07.129Z,4.30
2018-08-04T07:13:37.873Z,4.30
2018-08-04T07:16:07.187Z,4.33
2018-08-04T07:18:37.103Z,4.07
2018-08-04T07:21:06.778Z,4.03
2018-08-04T07:23:36.281Z,3.97
2018-08-04T07:26:05.377Z,4.00
2018-08-04T07:28:34.497Z,3.97
2018-08-04T07:31:02.869Z,3.70
2018-08-04T07:33:31.808Z,4.37
2018-08-04T07:36:01.548Z,3.60
2018-08-04T07:38:30.762Z,3.93
2018-08-04T07:40:59.779Z,3.57
2018-08-04T07:43:28.639Z,3.80
2018-08-04T07:45:57.028Z,4.50
2018-08-04T07:48:26.261Z,3.63
2018-08-04T07:50:55.717Z,3.70
2018-08-04T07:53:24.980Z,3.70
2018-08-04T07:55:54.282Z,3.73
2018-08-04T07:58:22.804Z,4.10
2018-08-04T08:00:51.203Z,4.27
2018-08-04T08:03:19.541Z,3.90
2018-08-04T08:05:47.950Z,5.10
2018-08-04T08:08:16.441Z,3.90
2018-08-04T08:10:47.718Z,3.60
2018-08-04T08:13:16.517Z,3.47
2018-08-04T08:15:45.072Z,3.90
2018-08-04T08:18:13.439Z,4.00
2018-08-04T08:20:41.897Z,3.70
2018-08-04T08:23:10.683Z,3.50
2018-08-04T08:25:39.125Z,4.13
2018-08-04T08:28:07.630Z,4.30
2018-08-04T08:30:36.854Z,4.20
2018-08-04T08:33:06.843Z,4.23
2018-08-04T08:35:37.222Z,4.33
2018-08-04T08:38:06.485Z,3.97
2018-08-04T08:40:34.846Z,3.90
2018-08-04T08:43:05.019Z,4.00
2018-08-04T08:45:33.427Z,3.73
2018-08-04T08:48:01.930Z,4.63
2018-08-04T08:50:31.362Z,4.00
2018-08-04T08:53:01.312Z,3.93
2018-08-04T08:55:32.180Z,4.10
2018-08-04T08:58:01.517Z,3.90
2018-08-04T09:00:30.444Z,4.57
2018-08-04T09:02:58.863Z,3.83
2018-08-04T09:05:27.232Z,4.33
2018-08-04T09:07:55.589Z,4.93
2018-08-04T09:10:23.955Z,4.00
2018-08-04T09:12:53.268Z,4.07
2018-08-04T09:15:22.462Z,4.20
2018-08-04T09:17:51.699Z,3.73
2018-08-04T09:20:21.113Z,3.53
2018-08-04T09:22:50.513Z,5.00
2018-08-04T09:25:19.876Z,4.23
2018-08-04T09:27:48.845Z,4.03
2018-08-04T09:30:17.223Z,4.00
2018-08-04T09:32:46.502Z,3.73
2018-08-04T09:35:15.841Z,4.10
2018-08-04T09:37:44.662Z,3.80
2018-08-04T09:40:15.210Z,4.03
2018-08-04T09:42:44.772Z,3.57
2018-08-04T09:45:13.171Z,4.70
2018-08-04T09:47:42.644Z,4.70
2018-08-04T09:50:13.087Z,4.60
2018-08-04T09:52:42.792Z,5.00
2018-08-04T09:55:12.504Z,4.10
2018-08-04T09:57:41.558Z,3.60
2018-08-04T10:00:15.575Z,3.70
2018-08-04T10:02:43.951Z,3.10
2018-08-04T10:05:12.373Z,3.50
2018-08-04T10:07:40.748Z,3.73
2018-08-04T10:10:09.137Z,3.53
2018-08-04T10:12:37.546Z,3.73
2018-08-04T10:15:08.030Z,3.70
2018-08-04T10:17:37.703Z,3.43
2018-08-04T10:20:07.653Z,3.10
2018-08-04T10:22:37.487Z,3.37
2018-08-04T10:25:06.914Z,3.63
2018-08-04T10:27:37.627Z,3.07
2018-08-04T10:30:08.286Z,3.13
2018-08-04T10:32:38.139Z,2.87
2018-08-04T10:35:07.847Z,3.97
2018-08-04T10:37:37.087Z,3.23
2018-08-04T10:40:06.592Z,3.30
2018-08-04T10:42:34.989Z,3.93
2018-08-04T10:45:03.410Z,3.60
2018-08-04T10:47:32.687Z,3.50
2018-08-04T10:50:03.074Z,3.93
2018-08-04T10:52:33.155Z,3.87
2018-08-04T10:55:01.567Z,3.50
2018-08-04T10:57:30.715Z,3.43
2018-08-04T11:00:00.020Z,3.83
2018-08-04T11:02:38.775Z,4.20
2018-08-04T11:05:08.430Z,3.80
2018-08-04T11:07:38.763Z,4.00
2018-08-04T11:10:08.448Z,3.73
2018-08-04T11:12:37.966Z,4.20
2018-08-04T11:15:07.208Z,3.90
2018-08-04T11:17:37.518Z,3.70
2018-08-04T11:20:38.502Z,4.00
2018-08-04T11:23:07.760Z,3.30
2018-08-04T11:25:37.287Z,3.57
2018-08-04T11:28:06.663Z,3.40
2018-08-04T11:30:35.075Z,3.90
2018-08-04T11:33:03.453Z,3.80
2018-08-04T11:35:31.985Z,3.23
2018-08-04T11:38:01.367Z,3.00
2018-08-04T11:40:30.843Z,3.53
2018-08-04T11:42:59.902Z,3.60
2018-08-04T11:45:28.823Z,2.90
2018-08-04T11:47:57.203Z,2.97
2018-08-04T11:50:25.553Z,3.67
2018-08-04T11:52:53.926Z,4.97
2018-08-04T11:55:22.294Z,5.33
2018-08-04T11:57:52.213Z,3.50
2018-08-04T12:00:20.574Z,3.40
2018-08-04T12:02:49.345Z,4.50
2018-08-04T12:05:17.754Z,3.63
2018-08-04T12:07:46.216Z,3.33
2018-08-04T12:10:15.380Z,3.60
2018-08-04T12:12:43.734Z,3.50
2018-08-04T12:15:12.718Z,3.87
2018-08-04T12:17:42.930Z,4.10
2018-08-04T12:20:12.205Z,3.67
2018-08-04T12:22:41.395Z,3.30
2018-08-04T12:25:09.767Z,3.90
2018-08-04T12:27:39.133Z,3.50
2018-08-04T12:30:09.087Z,4.13
2018-08-04T12:32:38.382Z,4.10
2018-08-04T12:35:09.590Z,3.67
2018-08-04T12:37:39.120Z,3.70
2018-08-04T12:40:08.311Z,3.77
2018-08-04T12:42:38.317Z,4.00
2018-08-04T12:45:08.681Z,3.80
2018-08-04T12:47:37.348Z,4.00
2018-08-04T12:50:06.493Z,3.73
2018-08-04T12:52:34.864Z,3.50
2018-08-04T12:55:03.216Z,3.80
2018-08-04T12:57:32.421Z,4.20
2018-08-04T13:00:01.437Z,3.67
2018-08-04T13:02:31.100Z,3.80
2018-08-04T13:04:59.914Z,3.90
2018-08-04T13:07:28.406Z,3.97
2018-08-04T13:09:56.901Z,3.97
2018-08-04T13:12:25.256Z,3.60
2018-08-04T13:14:53.604Z,3.90
2018-08-04T13:17:22.020Z,3.60
2018-08-04T13:19:50.370Z,4.20
2018-08-04T13:22:18.711Z,3.73
2018-08-04T13:24:47.057Z,4.20
2018-08-04T13:27:15.476Z,3.43
2018-08-04T13:29:44.718Z,3.93
2018-08-04T13:32:14.338Z,4.07
2018-08-04T13:34:42.809Z,3.83
2018-08-04T13:37:11.220Z,4.40
2018-08-04T13:39:39.556Z,3.70
2018-08-04T13:42:08.056Z,5.27
2018-08-04T13:44:37.186Z,3.90
2018-08-04T13:47:06.492Z,3.87
2018-08-04T13:49:34.861Z,4.07
2018-08-04T13:52:03.217Z,4.87
2018-08-04T13:54:31.573Z,4.80
2018-08-04T13:57:02.036Z,4.60
2018-08-04T13:59:33.041Z,4.93
2018-08-04T14:02:04.333Z,4.20
2018-08-04T14:04:32.672Z,4.90
2018-08-04T14:07:02.113Z,4.00
2018-08-04T14:09:31.334Z,3.60
2018-08-04T14:11:59.711Z,4.13
2018-08-04T14:14:30.013Z,4.40
2018-08-04T14:16:59.051Z,4.23
2018-08-04T14:19:27.391Z,4.67
2018-08-04T14:21:56.754Z,4.40
2018-08-04T14:24:25.112Z,4.70
2018-08-04T14:26:53.536Z,4.53
2018-08-04T14:29:21.950Z,5.20
2018-08-04T14:31:50.297Z,4.80
2018-08-04T14:34:19.496Z,4.70
2018-08-04T14:36:47.922Z,5.23
2018-08-04T14:39:16.329Z,4.90
2018-08-04T14:41:44.685Z,4.60
2018-08-04T14:44:13.033Z,4.50
2018-08-04T14:46:42.260Z,4.87
2018-08-04T14:49:11.636Z,4.53
2018-08-04T14:51:40.955Z,4.20
2018-08-04T14:54:09.285Z,4.80
2018-08-04T14:56:37.648Z,4.97
2018-08-04T14:59:07.021Z,4.30
2018-08-04T15:01:36.797Z,4.90
2018-08-04T15:04:06.466Z,4.33
2018-08-04T15:06:36.272Z,4.60
2018-08-04T15:09:08.561Z,5.37
2018-08-04T15:11:37.770Z,4.43
2018-08-04T15:14:07.013Z,5.33
2018-08-04T15:16:36.866Z,4.83
2018-08-04T15:19:06.989Z,4.37
2018-08-04T15:21:37.800Z,5.90
2018-08-04T15:24:08.295Z,6.33
2018-08-04T15:26:37.709Z,5.20
2018-08-04T15:29:06.920Z,4.70
2018-08-04T15:31:36.805Z,4.90
2018-08-04T15:34:06.338Z,5.20
2018-08-04T15:36:35.400Z,5.27
2018-08-04T15:39:05.321Z,5.47
2018-08-04T15:41:35.292Z,5.17
2018-08-04T15:44:05.321Z,4.80
2018-08-04T15:46:33.854Z,5.87
2018-08-04T15:49:03.230Z,4.67
2018-08-04T15:51:32.693Z,5.07
2018-08-04T15:54:02.045Z,4.50
2018-08-04T15:56:31.298Z,4.83
2018-08-04T15:59:01.562Z,4.50
2018-08-04T16:01:31.104Z,4.50
2018-08-04T16:04:01.887Z,4.60
2018-08-04T16:06:31.312Z,4.33
2018-08-04T16:09:01.476Z,4.67
2018-08-04T16:11:30.522Z,5.13
2018-08-04T16:14:00.209Z,4.80
2018-08-04T16:16:29.081Z,5.10
2018-08-04T16:18:57.424Z,4.50
2018-08-04T16:21:25.767Z,5.20
2018-08-04T16:23:54.100Z,5.27
2018-08-04T16:26:22.445Z,4.70
2018-08-04T16:28:51.372Z,4.77
2018-08-04T16:31:19.716Z,4.77
2018-08-04T16:33:48.073Z,5.17
2018-08-04T16:36:16.410Z,4.67
2018-08-04T16:38:44.752Z,5.27
2018-08-04T16:41:13.089Z,4.97
2018-08-04T16:43:41.460Z,5.30
2018-08-04T16:46:09.817Z,5.13
2018-08-04T16:48:38.218Z,4.93
2018-08-04T16:51:07.828Z,5.43
2018-08-04T16:53:36.809Z,5.87
2018-08-04T16:56:06.668Z,4.97
2018-08-04T16:58:35.745Z,6.10
2018-08-04T17:01:05.441Z,6.03
2018-08-04T17:03:33.785Z,5.53
2018-08-04T17:06:02.140Z,5.30
2018-08-04T17:08:32.293Z,5.30
2018-08-04T17:11:01.626Z,5.37
2018-08-04T17:13:31.026Z,6.07
2018-08-04T17:16:00.233Z,6.60
2018-08-04T17:18:28.666Z,5.00
2018-08-04T17:20:56.995Z,5.40
2018-08-04T17:23:25.376Z,6.10
2018-08-04T17:25:53.741Z,6.07
2018-08-04T17:28:22.082Z,6.30
2018-08-04T17:30:50.431Z,6.20
2018-08-04T17:33:18.760Z,6.53
2018-08-04T17:35:47.105Z,6.50
2018-08-04T17:38:15.468Z,6.13
2018-08-04T17:40:43.805Z,5.70
2018-08-04T17:43:12.157Z,6.43
2018-08-04T17:45:40.492Z,6.60
2018-08-04T17:48:08.824Z,7.20
2018-08-04T17:50:37.149Z,6.60
2018-08-04T17:53:06.426Z,6.40
2018-08-04T17:55:35.472Z,6.00
2018-08-04T17:58:03.816Z,6.20
2018-08-04T18:00:32.161Z,6.40
2018-08-04T18:03:00.562Z,6.30
2018-08-04T18:05:30.037Z,5.70
2018-08-04T18:07:59.318Z,5.87
2018-08-04T18:10:29.153Z,5.47
2018-08-04T18:12:57.573Z,5.90
2018-08-04T18:15:25.922Z,6.30
2018-08-04T18:17:54.278Z,6.57
2018-08-04T18:20:22.649Z,5.60
2018-08-04T18:22:52.056Z,6.33
2018-08-04T18:25:21.420Z,6.00
2018-08-04T18:27:50.624Z,5.33
2018-08-04T18:30:19.864Z,6.37
2018-08-04T18:32:48.218Z,5.70
2018-08-04T18:35:16.597Z,5.80
2018-08-04T18:37:44.952Z,6.40
2018-08-04T18:40:13.337Z,6.40
2018-08-04T18:42:41.661Z,6.53
2018-08-04T18:45:11.025Z,6.23
2018-08-04T18:47:39.353Z,5.70
2018-08-04T18:50:07.805Z,5.70
2018-08-04T18:52:37.220Z,5.73
2018-08-04T18:55:07.818Z,6.03
2018-08-04T18:57:37.142Z,5.93
2018-08-04T19:00:07.638Z,5.77
2018-08-04T19:02:36.888Z,5.50
2018-08-04T19:05:06.033Z,6.03
2018-08-04T19:07:35.202Z,5.90
2018-08-04T19:10:05.209Z,5.10
2018-08-04T19:12:35.336Z,5.77
2018-08-04T19:15:05.358Z,6.17
2018-08-04T19:17:34.749Z,5.63
2018-08-04T19:20:03.074Z,6.00
2018-08-04T19:22:31.522Z,6.13
2018-08-04T19:25:00.265Z,5.83
2018-08-04T19:27:28.645Z,5.90
2018-08-04T19:29:56.977Z,5.63
2018-08-04T19:32:25.317Z,6.60
2018-08-04T19:34:53.667Z,5.93
2018-08-04T19:37:22.013Z,5.53
2018-08-04T19:39:50.347Z,6.23
2018-08-04T19:42:18.694Z,6.13
2018-08-04T19:44:47.049Z,5.40
2018-08-04T19:47:15.381Z,5.20
2018-08-04T19:49:43.745Z,5.33
2018-08-04T19:52:12.073Z,5.70
2018-08-04T19:54:40.421Z,5.73
2018-08-04T19:57:08.753Z,5.93
2018-08-04T19:59:37.078Z,5.70
2018-08-04T20:02:06.174Z,5.07
2018-08-04T20:04:35.697Z,6.10
2018-08-04T20:07:05.105Z,5.60
2018-08-04T20:09:34.777Z,5.87
2018-08-04T20:12:05.357Z,5.57
2018-08-04T20:14:35.383Z,6.20
2018-08-04T20:17:05.475Z,5.73
2018-08-04T20:19:33.802Z,6.30
2018-08-04T20:22:02.153Z,6.73
2018-08-04T20:24:31.616Z,5.80
2018-08-04T20:27:00.607Z,6.70
2018-08-04T20:29:28.987Z,7.03
2018-08-04T20:31:58.245Z,6.20
2018-08-04T20:34:26.659Z,5.97
2018-08-04T20:36:55.027Z,6.00
2018-08-04T20:39:23.371Z,6.67
2018-08-04T20:41:51.760Z,6.70
2018-08-04T20:44:20.099Z,6.63
2018-08-04T20:46:48.463Z,6.60
2018-08-04T20:49:16.805Z,4.60
2018-08-04T20:51:45.154Z,5.93
2018-08-04T20:54:13.494Z,6.17
2018-08-04T20:56:41.868Z,6.00
2018-08-04T20:59:10.198Z,5.27
2018-08-04T21:02:10.957Z,6.23
2018-08-04T21:04:39.292Z,6.90
2018-08-04T21:07:07.792Z,6.20
2018-08-04T21:09:37.139Z,5.80
2018-08-04T21:12:06.465Z,5.67
2018-08-04T21:14:35.205Z,7.07
2018-08-04T21:17:05.845Z,6.17
2018-08-04T21:19:36.336Z,5.90
2018-08-04T21:22:05.279Z,5.70
2018-08-04T21:24:35.305Z,5.93
2018-08-04T21:27:05.341Z,6.90
2018-08-04T21:29:33.789Z,6.33
2018-08-04T21:32:02.916Z,5.93
2018-08-04T21:34:32.157Z,5.67
2018-08-04T21:37:01.438Z,6.13
2018-08-04T21:39:31.893Z,5.97
2018-08-04T21:42:00.297Z,5.93
2018-08-04T21:44:30.520Z,6.00
2018-08-04T21:46:59.289Z,4.97
2018-08-04T21:49:27.677Z,6.33
2018-08-04T21:51:56.001Z,5.83
2018-08-04T21:54:24.325Z,5.73
2018-08-04T21:56:53.666Z,5.37
2018-08-04T21:59:22.997Z,5.37
2018-08-04T22:01:55.098Z,5.50
2018-08-04T22:04:23.400Z,5.70
2018-08-04T22:08:01.857Z,5.57
2018-08-04T22:10:31.240Z,5.73
2018-08-04T22:13:00.299Z,5.33
2018-08-04T22:15:29.274Z,6.20
2018-08-04T22:17:57.853Z,6.27
2018-08-04T22:20:26.860Z,5.10
2018-08-04T22:22:55.252Z,5.30
2018-08-04T22:25:25.745Z,5.13
2018-08-04T22:27:55.605Z,5.23
2018-08-04T22:30:24.373Z,4.90
2018-08-04T22:32:53.190Z,5.00
2018-08-04T22:35:21.897Z,4.80
2018-08-04T22:37:50.327Z,5.40
2018-08-04T22:40:19.676Z,5.33
2018-08-04T22:42:48.023Z,5.07
2018-08-04T22:46:11.055Z,6.00
2018-08-04T22:48:39.572Z,5.03
2018-08-04T22:51:07.958Z,5.23
2018-08-04T22:53:37.516Z,6.13
2018-08-04T22:56:06.647Z,6.50
2018-08-04T22:58:34.980Z,5.60
2018-08-04T23:01:03.329Z,5.10
2018-08-04T23:03:33.188Z,6.17
2018-08-04T23:06:02.593Z,5.83
2018-08-04T23:08:31.000Z,5.80
2018-08-04T23:10:59.385Z,6.03
2018-08-04T23:13:27.716Z,5.83
2018-08-04T23:15:56.073Z,6.27
2018-08-04T23:18:24.393Z,5.90
2018-08-04T23:20:52.768Z,6.03
2018-08-04T23:23:22.004Z,5.90
2018-08-04T23:25:51.345Z,6.20
2018-08-04T23:28:20.573Z,6.00
2018-08-04T23:30:49.844Z,5.80
2018-08-04T23:33:18.176Z,6.20
2018-08-04T23:35:47.389Z,5.60
2018-08-04T23:38:15.743Z,6.13
2018-08-04T23:40:44.101Z,5.40
2018-08-04T23:43:12.429Z,5.10
2018-08-04T23:45:40.769Z,6.63
2018-08-04T23:48:09.138Z,5.80
2018-08-04T23:50:37.462Z,6.80
2018-08-04T23:53:06.852Z,6.43
2018-08-04T23:55:35.718Z,5.77
2018-08-04T23:58:05.450Z,5.90
